sensor_id;sensor_type;location;lat;lon;timestamp;pressure;altitude;pressure_sealevel;temperature;humidity
12172;BME280;6149;52.418;13.668;2023-09-30T00:01:08;101501.78;;;17.45;100.00
12172;BME280;6149;52.418;13.668;2023-09-30T00:03:41;101503.47;;;17.33;100.00
12172;BME280;6149;52.418;13.668;2023-09-30T00:06:09;101514.00;;;17.22;100.00
12172;BME280;6149;52.418;13.668;2023-09-30T00:08:37;101515.16;;;17.18;100.00
12172;BME280;6149;52.418;13.668;2023-09-30T00:11:08;101519.34;;;17.22;100.00
12172;BME280;6149;52.418;13.668;2023-09-30T00:13:37;101525.19;;;17.14;100.00
12172;BME280;6149;52.418;13.668;2023-09-30T00:16:04;101536.44;;;17.19;100.00
12172;BME280;6149;52.418;13.668;2023-09-30T00:18:32;101545.53;;;17.17;100.00
12172;BME280;6149;52.418;13.668;2023-09-30T00:21:00;101538.97;;;17.08;100.00
12172;BME280;6149;52.418;13.668;2023-09-30T00:23:34;101542.56;;;16.94;100.00
12172;BME280;6149;52.418;13.668;2023-09-30T00:26:04;101544.09;;;16.84;100.00
12172;BME280;6149;52.418;13.668;2023-09-30T00:28:32;101558.59;;;16.80;100.00
12172;BME280;6149;52.418;13.668;2023-09-30T00:31:06;101548.19;;;16.76;100.00
12172;BME280;6149;52.418;13.668;2023-09-30T00:33:37;101555.53;;;16.72;100.00
12172;BME280;6149;52.418;13.668;2023-09-30T00:36:10;101560.25;;;16.68;100.00
12172;BME280;6149;52.418;13.668;2023-09-30T00:38:39;101572.25;;;16.61;100.00
12172;BME280;6149;52.418;13.668;2023-09-30T00:41:08;101572.09;;;16.64;100.00
12172;BME280;6149;52.418;13.668;2023-09-30T00:43:36;101571.91;;;16.67;100.00
12172;BME280;6149;52.418;13.668;2023-09-30T00:46:06;101570.19;;;16.66;100.00
12172;BME280;6149;52.418;13.668;2023-09-30T00:48:42;101571.03;;;16.67;100.00
12172;BME280;6149;52.418;13.668;2023-09-30T00:51:11;101582.25;;;16.58;100.00
12172;BME280;6149;52.418;13.668;2023-09-30T00:53:38;101573.28;;;16.59;100.00
12172;BME280;6149;52.418;13.668;2023-09-30T00:56:06;101584.53;;;16.50;100.00
12172;BME280;6149;52.418;13.668;2023-09-30T00:58:35;101586.44;;;16.48;100.00
12172;BME280;6149;52.418;13.668;2023-09-30T01:01:06;101597.50;;;16.42;100.00
12172;BME280;6149;52.418;13.668;2023-09-30T01:03:33;101600.25;;;16.40;100.00
12172;BME280;6149;52.418;13.668;2023-09-30T01:06:04;101597.59;;;16.26;100.00
12172;BME280;6149;52.418;13.668;2023-09-30T01:08:40;101611.31;;;16.20;100.00
12172;BME280;6149;52.418;13.668;2023-09-30T01:11:08;101610.91;;;16.12;100.00
12172;BME280;6149;52.418;13.668;2023-09-30T01:13:36;101615.06;;;16.01;100.00
12172;BME280;6149;52.418;13.668;2023-09-30T01:16:05;101617.81;;;16.00;100.00
12172;BME280;6149;52.418;13.668;2023-09-30T01:18:35;101619.00;;;15.96;100.00
12172;BME280;6149;52.418;13.668;2023-09-30T01:21:07;101625.63;;;15.89;100.00
12172;BME280;6149;52.418;13.668;2023-09-30T01:23:48;101632.19;;;15.83;100.00
12172;BME280;6149;52.418;13.668;2023-09-30T01:26:16;101627.88;;;15.81;100.00
12172;BME280;6149;52.418;13.668;2023-09-30T01:28:43;101634.34;;;15.77;100.00
12172;BME280;6149;52.418;13.668;2023-09-30T01:31:11;101640.09;;;15.85;100.00
12172;BME280;6149;52.418;13.668;2023-09-30T01:33:40;101640.03;;;15.70;100.00
12172;BME280;6149;52.418;13.668;2023-09-30T01:36:08;101644.59;;;15.68;100.00
12172;BME280;6149;52.418;13.668;2023-09-30T01:38:37;101648.91;;;15.55;100.00
12172;BME280;6149;52.418;13.668;2023-09-30T01:41:05;101650.34;;;15.45;100.00
12172;BME280;6149;52.418;13.668;2023-09-30T01:43:32;101654.06;;;15.43;100.00
12172;BME280;6149;52.418;13.668;2023-09-30T01:46:03;101654.91;;;15.43;100.00
12172;BME280;6149;52.418;13.668;2023-09-30T01:48:33;101666.94;;;15.34;100.00
12172;BME280;6149;52.418;13.668;2023-09-30T01:51:00;101673.13;;;15.35;100.00
12172;BME280;6149;52.418;13.668;2023-09-30T01:53:28;101675.34;;;15.27;100.00
12172;BME280;6149;52.418;13.668;2023-09-30T01:56:03;101680.28;;;15.19;100.00
12172;BME280;6149;52.418;13.668;2023-09-30T01:58:32;101675.13;;;15.16;100.00
12172;BME280;6149;52.418;13.668;2023-09-30T02:01:02;101694.97;;;15.10;100.00
12172;BME280;6149;52.418;13.668;2023-09-30T02:03:30;101687.22;;;15.05;100.00
12172;BME280;6149;52.418;13.668;2023-09-30T02:05:59;101683.94;;;15.00;100.00
12172;BME280;6149;52.418;13.668;2023-09-30T02:08:27;101687.47;;;15.01;100.00
12172;BME280;6149;52.418;13.668;2023-09-30T02:10:55;101684.97;;;14.98;100.00
12172;BME280;6149;52.418;13.668;2023-09-30T02:13:26;101694.13;;;14.92;100.00
12172;BME280;6149;52.418;13.668;2023-09-30T02:15:55;101699.31;;;14.95;100.00
12172;BME280;6149;52.418;13.668;2023-09-30T02:18:24;101706.84;;;14.87;100.00
12172;BME280;6149;52.418;13.668;2023-09-30T02:20:52;101715.03;;;14.84;100.00
12172;BME280;6149;52.418;13.668;2023-09-30T02:23:20;101719.72;;;14.79;100.00
12172;BME280;6149;52.418;13.668;2023-09-30T02:25:48;101716.34;;;14.76;100.00
12172;BME280;6149;52.418;13.668;2023-09-30T02:28:18;101720.97;;;14.72;100.00
12172;BME280;6149;52.418;13.668;2023-09-30T02:30:47;101715.97;;;14.66;100.00
12172;BME280;6149;52.418;13.668;2023-09-30T02:33:16;101719.72;;;14.62;100.00
12172;BME280;6149;52.418;13.668;2023-09-30T02:35:45;101725.84;;;14.64;100.00
12172;BME280;6149;52.418;13.668;2023-09-30T02:38:16;101721.59;;;14.60;100.00
12172;BME280;6149;52.418;13.668;2023-09-30T02:40:47;101725.59;;;14.51;100.00
12172;BME280;6149;52.418;13.668;2023-09-30T02:43:15;101731.19;;;14.47;100.00
12172;BME280;6149;52.418;13.668;2023-09-30T02:45:41;101731.34;;;14.44;100.00
12172;BME280;6149;52.418;13.668;2023-09-30T02:48:11;101739.53;;;14.39;100.00
12172;BME280;6149;52.418;13.668;2023-09-30T02:50:42;101739.84;;;14.33;100.00
12172;BME280;6149;52.418;13.668;2023-09-30T02:53:10;101732.78;;;14.32;100.00
12172;BME280;6149;52.418;13.668;2023-09-30T02:55:38;101741.63;;;14.32;100.00
12172;BME280;6149;52.418;13.668;2023-09-30T02:58:08;101746.16;;;14.30;100.00
12172;BME280;6149;52.418;13.668;2023-09-30T03:00:36;101756.31;;;14.22;100.00
12172;BME280;6149;52.418;13.668;2023-09-30T03:03:06;101760.00;;;14.20;100.00
12172;BME280;6149;52.418;13.668;2023-09-30T03:05:36;101761.16;;;14.14;100.00
12172;BME280;6149;52.418;13.668;2023-09-30T03:08:04;101768.47;;;14.11;100.00
12172;BME280;6149;52.418;13.668;2023-09-30T03:10:32;101767.75;;;14.07;100.00
12172;BME280;6149;52.418;13.668;2023-09-30T03:13:01;101762.56;;;14.04;100.00
12172;BME280;6149;52.418;13.668;2023-09-30T03:15:33;101769.84;;;14.00;100.00
12172;BME280;6149;52.418;13.668;2023-09-30T03:18:00;101762.94;;;13.96;100.00
12172;BME280;6149;52.418;13.668;2023-09-30T03:20:30;101769.25;;;13.94;100.00
12172;BME280;6149;52.418;13.668;2023-09-30T03:23:03;101771.06;;;13.93;100.00
12172;BME280;6149;52.418;13.668;2023-09-30T03:25:31;101777.38;;;13.91;100.00
12172;BME280;6149;52.418;13.668;2023-09-30T03:28:08;101782.00;;;13.87;100.00
12172;BME280;6149;52.418;13.668;2023-09-30T03:30:36;101784.78;;;13.84;100.00
12172;BME280;6149;52.418;13.668;2023-09-30T03:33:04;101787.53;;;13.83;100.00
12172;BME280;6149;52.418;13.668;2023-09-30T03:35:34;101782.22;;;13.83;100.00
12172;BME280;6149;52.418;13.668;2023-09-30T03:38:04;101784.22;;;13.78;100.00
12172;BME280;6149;52.418;13.668;2023-09-30T03:40:34;101790.66;;;13.74;100.00
12172;BME280;6149;52.418;13.668;2023-09-30T03:43:05;101783.75;;;13.69;100.00
12172;BME280;6149;52.418;13.668;2023-09-30T03:45:35;101778.44;;;13.69;100.00
12172;BME280;6149;52.418;13.668;2023-09-30T03:48:04;101782.03;;;13.68;100.00
12172;BME280;6149;52.418;13.668;2023-09-30T03:50:33;101781.38;;;13.63;100.00
12172;BME280;6149;52.418;13.668;2023-09-30T03:53:04;101784.25;;;13.59;100.00
12172;BME280;6149;52.418;13.668;2023-09-30T03:55:34;101786.03;;;13.58;100.00
12172;BME280;6149;52.418;13.668;2023-09-30T03:58:03;101787.03;;;13.56;100.00
12172;BME280;6149;52.418;13.668;2023-09-30T04:00:31;101796.00;;;13.53;100.00
12172;BME280;6149;52.418;13.668;2023-09-30T04:03:00;101801.19;;;13.56;100.00
12172;BME280;6149;52.418;13.668;2023-09-30T04:05:29;101805.72;;;13.54;100.00
12172;BME280;6149;52.418;13.668;2023-09-30T04:08:06;101802.41;;;13.49;100.00
12172;BME280;6149;52.418;13.668;2023-09-30T04:10:34;101807.06;;;13.44;100.00
12172;BME280;6149;52.418;13.668;2023-09-30T04:13:00;101804.47;;;13.43;100.00
12172;BME280;6149;52.418;13.668;2023-09-30T04:15:31;101798.16;;;13.45;100.00
12172;BME280;6149;52.418;13.668;2023-09-30T04:18:04;101797.56;;;13.38;100.00
12172;BME280;6149;52.418;13.668;2023-09-30T04:20:33;101805.59;;;13.37;100.00
12172;BME280;6149;52.418;13.668;2023-09-30T04:23:01;101803.97;;;13.34;100.00
12172;BME280;6149;52.418;13.668;2023-09-30T04:25:40;101812.16;;;13.30;100.00
12172;BME280;6149;52.418;13.668;2023-09-30T04:28:10;101810.50;;;13.27;100.00
12172;BME280;6149;52.418;13.668;2023-09-30T04:30:39;101825.56;;;13.27;100.00
12172;BME280;6149;52.418;13.668;2023-09-30T04:33:07;101824.72;;;13.26;100.00
12172;BME280;6149;52.418;13.668;2023-09-30T04:35:38;101840.72;;;13.25;100.00
12172;BME280;6149;52.418;13.668;2023-09-30T04:38:05;101835.47;;;13.23;100.00
12172;BME280;6149;52.418;13.668;2023-09-30T04:40:39;101831.16;;;13.21;100.00
12172;BME280;6149;52.418;13.668;2023-09-30T04:43:06;101836.66;;;13.16;100.00
12172;BME280;6149;52.418;13.668;2023-09-30T04:45:34;101834.97;;;13.14;100.00
12172;BME280;6149;52.418;13.668;2023-09-30T04:48:05;101828.94;;;13.10;100.00
12172;BME280;6149;52.418;13.668;2023-09-30T04:50:32;101834.25;;;13.10;100.00
12172;BME280;6149;52.418;13.668;2023-09-30T04:53:01;101831.66;;;13.09;100.00
12172;BME280;6149;52.418;13.668;2023-09-30T04:55:36;101829.06;;;13.07;100.00
12172;BME280;6149;52.418;13.668;2023-09-30T04:58:05;101828.19;;;13.06;100.00
12172;BME280;6149;52.418;13.668;2023-09-30T05:00:34;101828.41;;;13.02;100.00
12172;BME280;6149;52.418;13.668;2023-09-30T05:03:01;101825.81;;;13.00;100.00
12172;BME280;6149;52.418;13.668;2023-09-30T05:05:31;101832.22;;;12.96;100.00
12172;BME280;6149;52.418;13.668;2023-09-30T05:08:00;101824.31;;;12.95;100.00
12172;BME280;6149;52.418;13.668;2023-09-30T05:10:27;101826.16;;;12.93;100.00
12172;BME280;6149;52.418;13.668;2023-09-30T05:12:59;101830.41;;;12.97;100.00
12172;BME280;6149;52.418;13.668;2023-09-30T05:15:26;101839.50;;;12.91;100.00
12172;BME280;6149;52.418;13.668;2023-09-30T05:17:55;101843.09;;;12.90;100.00
12172;BME280;6149;52.418;13.668;2023-09-30T05:20:22;101847.59;;;12.88;100.00
12172;BME280;6149;52.418;13.668;2023-09-30T05:22:49;101851.19;;;12.87;100.00
12172;BME280;6149;52.418;13.668;2023-09-30T05:25:16;101853.03;;;12.85;100.00
12172;BME280;6149;52.418;13.668;2023-09-30T05:27:45;101859.28;;;12.84;100.00
12172;BME280;6149;52.418;13.668;2023-09-30T05:30:14;101856.63;;;12.84;100.00
12172;BME280;6149;52.418;13.668;2023-09-30T05:32:41;101857.47;;;12.85;100.00
12172;BME280;6149;52.418;13.668;2023-09-30T05:35:09;101862.66;;;12.88;100.00
12172;BME280;6149;52.418;13.668;2023-09-30T05:37:39;101856.56;;;12.86;100.00
12172;BME280;6149;52.418;13.668;2023-09-30T05:40:08;101860.06;;;12.86;100.00
12172;BME280;6149;52.418;13.668;2023-09-30T05:42:46;101862.78;;;12.85;100.00
12172;BME280;6149;52.418;13.668;2023-09-30T05:45:14;101865.44;;;12.85;100.00
12172;BME280;6149;52.418;13.668;2023-09-30T05:47:43;101873.59;;;12.80;100.00
12172;BME280;6149;52.418;13.668;2023-09-30T05:50:11;101886.81;;;12.82;100.00
12172;BME280;6149;52.418;13.668;2023-09-30T05:52:42;101888.66;;;12.80;100.00
12172;BME280;6149;52.418;13.668;2023-09-30T05:55:10;101890.41;;;12.81;100.00
12172;BME280;6149;52.418;13.668;2023-09-30T05:57:38;101880.63;;;12.81;100.00
12172;BME280;6149;52.418;13.668;2023-09-30T06:00:07;101885.03;;;12.82;100.00
12172;BME280;6149;52.418;13.668;2023-09-30T06:02:42;101892.78;;;12.87;100.00
12172;BME280;6149;52.418;13.668;2023-09-30T06:05:10;101886.19;;;12.97;100.00
12172;BME280;6149;52.418;13.668;2023-09-30T06:07:37;101900.56;;;13.12;100.00
12172;BME280;6149;52.418;13.668;2023-09-30T06:10:05;101911.31;;;13.30;100.00
12172;BME280;6149;52.418;13.668;2023-09-30T06:12:37;101911.81;;;13.38;100.00
12172;BME280;6149;52.418;13.668;2023-09-30T06:15:06;101917.59;;;13.48;100.00
12172;BME280;6149;52.418;13.668;2023-09-30T06:17:33;101908.44;;;13.55;100.00
12172;BME280;6149;52.418;13.668;2023-09-30T06:20:04;101909.88;;;13.62;100.00
12172;BME280;6149;52.418;13.668;2023-09-30T06:22:35;101905.09;;;13.70;100.00
12172;BME280;6149;52.418;13.668;2023-09-30T06:25:06;101919.94;;;13.75;100.00
12172;BME280;6149;52.418;13.668;2023-09-30T06:27:35;101923.25;;;13.80;100.00
12172;BME280;6149;52.418;13.668;2023-09-30T06:30:05;101917.81;;;13.83;100.00
12172;BME280;6149;52.418;13.668;2023-09-30T06:32:37;101930.03;;;13.87;100.00
12172;BME280;6149;52.418;13.668;2023-09-30T06:35:10;101932.63;;;13.88;100.00
12172;BME280;6149;52.418;13.668;2023-09-30T06:37:38;101932.69;;;13.87;100.00
12172;BME280;6149;52.418;13.668;2023-09-30T06:40:08;101937.22;;;13.85;100.00
12172;BME280;6149;52.418;13.668;2023-09-30T06:42:39;101942.53;;;13.85;100.00
12172;BME280;6149;52.418;13.668;2023-09-30T06:45:08;101941.59;;;13.86;100.00
12172;BME280;6149;52.418;13.668;2023-09-30T06:47:37;101945.06;;;13.88;100.00
12172;BME280;6149;52.418;13.668;2023-09-30T06:50:13;101943.84;;;13.95;100.00
12172;BME280;6149;52.418;13.668;2023-09-30T06:52:43;101951.81;;;13.95;100.00
12172;BME280;6149;52.418;13.668;2023-09-30T06:55:13;101951.81;;;13.95;100.00
12172;BME280;6149;52.418;13.668;2023-09-30T06:57:40;101949.03;;;13.98;100.00
12172;BME280;6149;52.418;13.668;2023-09-30T07:00:09;101961.41;;;13.99;100.00
12172;BME280;6149;52.418;13.668;2023-09-30T07:02:38;101960.53;;;13.98;100.00
12172;BME280;6149;52.418;13.668;2023-09-30T07:05:13;101965.72;;;14.01;100.00
12172;BME280;6149;52.418;13.668;2023-09-30T07:07:41;101971.63;;;14.08;100.00
12172;BME280;6149;52.418;13.668;2023-09-30T07:10:09;101973.34;;;14.09;100.00
12172;BME280;6149;52.418;13.668;2023-09-30T07:12:40;101978.44;;;14.14;100.00
12172;BME280;6149;52.418;13.668;2023-09-30T07:15:09;101979.94;;;14.19;100.00
12172;BME280;6149;52.418;13.668;2023-09-30T07:17:37;101982.31;;;14.25;100.00
12172;BME280;6149;52.418;13.668;2023-09-30T07:20:06;101982.97;;;14.30;100.00
12172;BME280;6149;52.418;13.668;2023-09-30T07:22:35;101989.75;;;14.37;100.00
12172;BME280;6149;52.418;13.668;2023-09-30T07:25:04;101990.38;;;14.44;100.00
12172;BME280;6149;52.418;13.668;2023-09-30T07:27:32;101996.03;;;14.55;100.00
12172;BME280;6149;52.418;13.668;2023-09-30T07:30:02;101994.59;;;14.67;100.00
12172;BME280;6149;52.418;13.668;2023-09-30T07:32:43;101998.75;;;14.73;100.00
12172;BME280;6149;52.418;13.668;2023-09-30T07:35:12;102002.06;;;14.78;100.00
12172;BME280;6149;52.418;13.668;2023-09-30T07:37:42;102002.78;;;14.81;100.00
12172;BME280;6149;52.418;13.668;2023-09-30T07:40:10;101997.19;;;14.86;100.00
12172;BME280;6149;52.418;13.668;2023-09-30T07:42:39;102004.03;;;14.91;100.00
12172;BME280;6149;52.418;13.668;2023-09-30T07:45:08;102000.13;;;14.98;100.00
12172;BME280;6149;52.418;13.668;2023-09-30T07:47:37;102011.44;;;15.03;100.00
12172;BME280;6149;52.418;13.668;2023-09-30T07:50:06;102011.28;;;15.07;100.00
12172;BME280;6149;52.418;13.668;2023-09-30T07:52:36;102012.88;;;15.11;100.00
12172;BME280;6149;52.418;13.668;2023-09-30T07:55:07;102021.44;;;15.17;100.00
12172;BME280;6149;52.418;13.668;2023-09-30T07:57:34;102022.75;;;15.26;100.00
12172;BME280;6149;52.418;13.668;2023-09-30T08:00:03;102023.22;;;15.34;100.00
12172;BME280;6149;52.418;13.668;2023-09-30T08:02:35;102026.31;;;15.44;100.00
12172;BME280;6149;52.418;13.668;2023-09-30T08:05:02;102024.34;;;15.47;100.00
12172;BME280;6149;52.418;13.668;2023-09-30T08:07:33;102032.03;;;15.53;100.00
12172;BME280;6149;52.418;13.668;2023-09-30T08:10:07;102039.97;;;15.55;100.00
12172;BME280;6149;52.418;13.668;2023-09-30T08:12:40;102042.50;;;15.58;100.00
12172;BME280;6149;52.418;13.668;2023-09-30T08:15:10;102058.25;;;15.62;100.00
12172;BME280;6149;52.418;13.668;2023-09-30T08:17:39;102038.91;;;15.59;100.00
12172;BME280;6149;52.418;13.668;2023-09-30T08:20:07;102038.56;;;15.65;100.00
12172;BME280;6149;52.418;13.668;2023-09-30T08:22:34;102047.84;;;15.58;100.00
12172;BME280;6149;52.418;13.668;2023-09-30T08:25:10;102049.75;;;15.54;100.00
12172;BME280;6149;52.418;13.668;2023-09-30T08:27:37;102056.03;;;15.53;100.00
12172;BME280;6149;52.418;13.668;2023-09-30T08:30:06;102048.81;;;15.55;100.00
12172;BME280;6149;52.418;13.668;2023-09-30T08:32:42;102052.59;;;15.68;100.00
12172;BME280;6149;52.418;13.668;2023-09-30T08:35:09;102052.38;;;15.73;100.00
12172;BME280;6149;52.418;13.668;2023-09-30T08:37:37;102053.78;;;15.80;100.00
12172;BME280;6149;52.418;13.668;2023-09-30T08:40:10;102055.97;;;15.89;100.00
12172;BME280;6149;52.418;13.668;2023-09-30T08:42:38;102051.06;;;15.97;100.00
12172;BME280;6149;52.418;13.668;2023-09-30T08:45:10;102053.75;;;16.15;100.00
12172;BME280;6149;52.418;13.668;2023-09-30T08:47:40;102053.78;;;16.30;100.00
12172;BME280;6149;52.418;13.668;2023-09-30T08:50:09;102058.44;;;16.27;100.00
12172;BME280;6149;52.418;13.668;2023-09-30T08:52:37;102063.31;;;16.34;100.00
12172;BME280;6149;52.418;13.668;2023-09-30T08:55:08;102046.50;;;16.50;100.00
12172;BME280;6149;52.418;13.668;2023-09-30T08:57:40;102040.41;;;16.63;100.00
12172;BME280;6149;52.418;13.668;2023-09-30T09:00:10;102043.50;;;16.71;100.00
12172;BME280;6149;52.418;13.668;2023-09-30T09:02:41;102045.31;;;16.71;100.00
12172;BME280;6149;52.418;13.668;2023-09-30T09:05:10;102042.66;;;16.87;100.00
12172;BME280;6149;52.418;13.668;2023-09-30T09:07:38;102055.56;;;17.10;99.45
12172;BME280;6149;52.418;13.668;2023-09-30T09:10:12;102044.97;;;17.24;96.64
12172;BME280;6149;52.418;13.668;2023-09-30T09:12:41;102044.50;;;17.32;95.09
12172;BME280;6149;52.418;13.668;2023-09-30T09:15:20;102047.44;;;17.27;94.26
12172;BME280;6149;52.418;13.668;2023-09-30T09:17:50;102047.38;;;17.29;95.71
12172;BME280;6149;52.418;13.668;2023-09-30T09:20:19;102044.69;;;17.29;95.61
12172;BME280;6149;52.418;13.668;2023-09-30T09:22:48;102051.00;;;17.28;93.01
12172;BME280;6149;52.418;13.668;2023-09-30T09:25:19;102040.72;;;17.36;94.02
12172;BME280;6149;52.418;13.668;2023-09-30T09:27:51;102052.00;;;17.41;94.29
12172;BME280;6149;52.418;13.668;2023-09-30T09:30:21;102041.50;;;17.52;92.61
12172;BME280;6149;52.418;13.668;2023-09-30T09:32:53;102041.25;;;17.73;92.38
12172;BME280;6149;52.418;13.668;2023-09-30T09:35:21;102050.72;;;17.92;91.53
12172;BME280;6149;52.418;13.668;2023-09-30T09:37:54;102048.53;;;17.99;89.86
12172;BME280;6149;52.418;13.668;2023-09-30T09:40:29;102048.56;;;18.13;90.56
12172;BME280;6149;52.418;13.668;2023-09-30T09:42:58;102059.16;;;18.29;88.73
12172;BME280;6149;52.418;13.668;2023-09-30T09:45:27;102050.75;;;18.35;86.68
12172;BME280;6149;52.418;13.668;2023-09-30T09:47:59;102058.69;;;18.22;85.81
12172;BME280;6149;52.418;13.668;2023-09-30T09:50:35;102056.78;;;18.24;87.68
12172;BME280;6149;52.418;13.668;2023-09-30T09:53:04;102051.06;;;18.16;86.87
12172;BME280;6149;52.418;13.668;2023-09-30T09:55:35;102044.94;;;18.14;87.04
12172;BME280;6149;52.418;13.668;2023-09-30T09:58:05;102045.88;;;18.13;86.63
12172;BME280;6149;52.418;13.668;2023-09-30T10:00:35;102051.44;;;18.10;86.81
12172;BME280;6149;52.418;13.668;2023-09-30T10:03:04;102052.94;;;18.00;86.84
12172;BME280;6149;52.418;13.668;2023-09-30T10:05:32;102045.19;;;17.95;86.83
12172;BME280;6149;52.418;13.668;2023-09-30T10:08:02;102048.63;;;17.97;87.66
12172;BME280;6149;52.418;13.668;2023-09-30T10:10:36;102046.91;;;17.96;86.40
12172;BME280;6149;52.418;13.668;2023-09-30T10:13:04;102049.13;;;18.04;87.59
12172;BME280;6149;52.418;13.668;2023-09-30T10:15:37;102049.69;;;18.09;85.91
12172;BME280;6149;52.418;13.668;2023-09-30T10:18:08;102041.47;;;18.12;84.61
12172;BME280;6149;52.418;13.668;2023-09-30T10:20:37;102047.78;;;18.11;84.45
12172;BME280;6149;52.418;13.668;2023-09-30T10:23:20;102036.50;;;18.20;85.39
12172;BME280;6149;52.418;13.668;2023-09-30T10:25:54;102044.94;;;18.14;84.47
12172;BME280;6149;52.418;13.668;2023-09-30T10:28:34;102047.03;;;18.09;83.13
12172;BME280;6149;52.418;13.668;2023-09-30T10:31:09;102040.31;;;18.02;83.23
12172;BME280;6149;52.418;13.668;2023-09-30T10:34:20;102036.88;;;18.00;82.65
12172;BME280;6149;52.418;13.668;2023-09-30T10:36:48;102040.22;;;18.03;82.99
12172;BME280;6149;52.418;13.668;2023-09-30T10:39:52;102042.16;;;18.16;82.78
12172;BME280;6149;52.418;13.668;2023-09-30T10:42:46;102039.56;;;18.14;79.52
12172;BME280;6149;52.418;13.668;2023-09-30T10:45:44;102037.19;;;18.10;80.59
12172;BME280;6149;52.418;13.668;2023-09-30T10:48:38;102046.75;;;18.14;80.77
12172;BME280;6149;52.418;13.668;2023-09-30T10:51:14;102039.66;;;18.27;78.98
12172;BME280;6149;52.418;13.668;2023-09-30T10:53:45;102041.66;;;18.37;77.51
12172;BME280;6149;52.418;13.668;2023-09-30T10:56:14;102062.13;;;18.38;74.44
12172;BME280;6149;52.418;13.668;2023-09-30T10:58:45;102063.69;;;18.43;73.44
12172;BME280;6149;52.418;13.668;2023-09-30T11:01:16;102058.59;;;18.38;73.85
12172;BME280;6149;52.418;13.668;2023-09-30T11:03:46;102055.91;;;18.38;74.07
12172;BME280;6149;52.418;13.668;2023-09-30T11:06:16;102060.03;;;18.44;70.99
12172;BME280;6149;52.418;13.668;2023-09-30T11:08:50;102052.38;;;18.37;71.35
12172;BME280;6149;52.418;13.668;2023-09-30T11:11:19;102054.09;;;18.38;71.38
12172;BME280;6149;52.418;13.668;2023-09-30T11:14:16;102051.03;;;18.45;71.40
12172;BME280;6149;52.418;13.668;2023-09-30T11:16:44;102052.00;;;18.44;70.00
12172;BME280;6149;52.418;13.668;2023-09-30T11:19:15;102049.78;;;18.36;72.01
12172;BME280;6149;52.418;13.668;2023-09-30T11:21:42;102054.28;;;18.35;73.06
12172;BME280;6149;52.418;13.668;2023-09-30T11:24:10;102059.09;;;18.45;74.79
12172;BME280;6149;52.418;13.668;2023-09-30T11:26:40;102046.25;;;18.50;74.23
12172;BME280;6149;52.418;13.668;2023-09-30T11:29:13;102040.28;;;18.59;73.25
12172;BME280;6149;52.418;13.668;2023-09-30T11:31:42;102051.53;;;18.51;71.30
12172;BME280;6149;52.418;13.668;2023-09-30T11:34:14;102045.50;;;18.48;71.74
12172;BME280;6149;52.418;13.668;2023-09-30T11:36:48;102045.78;;;18.43;71.32
12172;BME280;6149;52.418;13.668;2023-09-30T11:39:24;102041.09;;;18.32;70.29
12172;BME280;6149;52.418;13.668;2023-09-30T11:41:51;102047.59;;;18.28;70.86
12172;BME280;6149;52.418;13.668;2023-09-30T11:44:20;102036.59;;;18.33;73.24
12172;BME280;6149;52.418;13.668;2023-09-30T11:46:49;102032.09;;;18.33;70.44
12172;BME280;6149;52.418;13.668;2023-09-30T11:49:26;102031.06;;;18.36;72.48
12172;BME280;6149;52.418;13.668;2023-09-30T11:51:56;102032.28;;;18.45;72.39
12172;BME280;6149;52.418;13.668;2023-09-30T11:54:32;102019.75;;;18.45;69.02
12172;BME280;6149;52.418;13.668;2023-09-30T11:57:03;102022.81;;;18.39;68.75
12172;BME280;6149;52.418;13.668;2023-09-30T11:59:33;102010.78;;;18.46;70.57
12172;BME280;6149;52.418;13.668;2023-09-30T12:02:00;102008.56;;;18.53;69.53
12172;BME280;6149;52.418;13.668;2023-09-30T12:04:27;102016.03;;;18.62;69.74
12172;BME280;6149;52.418;13.668;2023-09-30T12:06:56;102020.88;;;18.69;71.61
12172;BME280;6149;52.418;13.668;2023-09-30T12:09:23;102021.25;;;18.78;70.67
12172;BME280;6149;52.418;13.668;2023-09-30T12:11:52;102016.84;;;18.77;69.66
12172;BME280;6149;52.418;13.668;2023-09-30T12:14:20;102012.00;;;18.69;69.64
12172;BME280;6149;52.418;13.668;2023-09-30T12:16:48;102014.28;;;18.61;68.56
12172;BME280;6149;52.418;13.668;2023-09-30T12:19:17;102014.47;;;18.58;69.53
12172;BME280;6149;52.418;13.668;2023-09-30T12:21:46;102005.88;;;18.53;70.06
12172;BME280;6149;52.418;13.668;2023-09-30T12:24:15;102006.84;;;18.52;71.39
12172;BME280;6149;52.418;13.668;2023-09-30T12:26:43;102008.56;;;18.53;70.25
12172;BME280;6149;52.418;13.668;2023-09-30T12:29:14;102002.78;;;18.59;71.12
12172;BME280;6149;52.418;13.668;2023-09-30T12:31:42;101997.75;;;18.54;70.39
12172;BME280;6149;52.418;13.668;2023-09-30T12:34:15;101996.31;;;18.63;70.84
12172;BME280;6149;52.418;13.668;2023-09-30T12:36:42;101996.09;;;18.66;70.54
12172;BME280;6149;52.418;13.668;2023-09-30T12:39:14;101996.47;;;18.74;69.08
12172;BME280;6149;52.418;13.668;2023-09-30T12:41:43;101995.41;;;18.77;69.20
12172;BME280;6149;52.418;13.668;2023-09-30T12:44:11;101987.75;;;18.85;70.55
12172;BME280;6149;52.418;13.668;2023-09-30T12:46:39;101985.06;;;18.85;70.39
12172;BME280;6149;52.418;13.668;2023-09-30T12:49:08;101982.38;;;18.85;70.81
12172;BME280;6149;52.418;13.668;2023-09-30T12:51:39;101982.09;;;18.89;72.11
12172;BME280;6149;52.418;13.668;2023-09-30T12:54:06;101981.13;;;18.90;70.50
12172;BME280;6149;52.418;13.668;2023-09-30T12:56:35;101979.94;;;18.94;69.95
12172;BME280;6149;52.418;13.668;2023-09-30T12:59:04;101990.16;;;19.02;68.26